Time;durP1;ratioP1;P1;durP2;ratioP2;P2;SDS_P1;SDS_P2;PMS_P1;PMS_P2;Temp;Humidity;BMP_temperature;BMP_pressure;BME280_temperature;BME280_humidity;BME280_pressure;Samples;Min_cycle;Max_cycle;Signal;HPM_P1;HPM_P2
2023/05/30 00:01:55;;;;;;;14.23;3.20;;;10.80;99.90;;;;;;5095782;28;20194;-51
2023/05/30 00:04:23;;;;;;;17.37;4.00;;;10.80;99.90;;;;;;5099351;28;20186;-54
2023/05/30 00:06:51;;;;;;;9.57;3.13;;;10.80;99.90;;;;;;5097012;28;20197;-56
2023/05/30 00:09:19;;;;;;;10.40;3.30;;;10.70;99.90;;;;;;5102433;28;20627;-57
2023/05/30 00:11:48;;;;;;;10.00;3.20;;;10.70;99.90;;;;;;5103669;28;20185;-50
2023/05/30 00:14:20;;;;;;;9.53;2.60;;;10.70;99.90;;;;;;5104461;28;20221;-57
2023/05/30 00:16:47;;;;;;;11.53;3.10;;;10.60;99.90;;;;;;5080036;28;20220;-57
2023/05/30 00:19:15;;;;;;;13.53;3.03;;;10.60;99.90;;;;;;5077845;28;20193;-52
2023/05/30 00:21:45;;;;;;;9.33;2.77;;;10.60;99.90;;;;;;5096256;28;20272;-53
2023/05/30 00:24:11;;;;;;;11.13;2.63;;;10.60;99.90;;;;;;5097029;28;20212;-53
2023/05/30 00:26:38;;;;;;;9.43;3.30;;;10.60;99.90;;;;;;5093335;28;21066;-49
2023/05/30 00:29:05;;;;;;;10.20;2.90;;;10.50;99.90;;;;;;5105149;28;20202;-54
2023/05/30 00:31:31;;;;;;;11.40;2.73;;;10.40;99.90;;;;;;5077268;28;20214;-53
2023/05/30 00:34:00;;;;;;;12.30;3.40;;;10.40;99.90;;;;;;5088613;28;20210;-53
2023/05/30 00:36:29;;;;;;;11.50;2.73;;;10.40;99.90;;;;;;5097295;28;20835;-52
2023/05/30 00:38:58;;;;;;;11.53;3.20;;;10.30;99.90;;;;;;5101441;28;20204;-51
2023/05/30 00:41:25;;;;;;;11.20;3.00;;;10.30;99.90;;;;;;5099770;28;20242;-56
2023/05/30 00:43:51;;;;;;;8.80;2.70;;;10.20;99.90;;;;;;5104117;28;20189;-50
2023/05/30 00:46:23;;;;;;;8.97;3.13;;;10.10;99.90;;;;;;5097277;28;20210;-57
2023/05/30 00:48:52;;;;;;;13.87;3.33;;;10.10;99.90;;;;;;5071651;28;20218;-55
2023/05/30 00:51:20;;;;;;;11.27;3.47;;;10.20;99.90;;;;;;5076782;28;20212;-49
2023/05/30 00:53:50;;;;;;;9.23;2.57;;;10.20;99.90;;;;;;5098900;28;20189;-57
2023/05/30 00:56:17;;;;;;;8.10;2.83;;;10.10;99.90;;;;;;5102624;28;20232;-50
2023/05/30 00:58:45;;;;;;;11.50;2.80;;;10.10;99.90;;;;;;5101719;28;20199;-53
2023/05/30 01:01:12;;;;;;;10.50;2.70;;;10.10;99.90;;;;;;5092223;28;20181;-53
2023/05/30 01:03:39;;;;;;;8.60;2.40;;;10.10;99.90;;;;;;5078960;28;20209;-49
2023/05/30 01:06:07;;;;;;;9.20;3.00;;;10.00;99.90;;;;;;5091127;28;20965;-48
2023/05/30 01:08:34;;;;;;;5.30;2.70;;;10.00;99.90;;;;;;5090761;28;20204;-50
2023/05/30 01:11:11;;;;;;;11.47;3.20;;;9.90;99.90;;;;;;5099154;28;20284;-48
2023/05/30 01:13:45;;;;;;;12.40;3.00;;;9.90;99.90;;;;;;5096451;28;20753;-56
2023/05/30 01:16:36;;;;;;;11.13;2.50;;;9.90;99.90;;;;;;5087049;28;20407;-56
2023/05/30 01:19:21;;;;;;;11.47;2.97;;;9.90;99.90;;;;;;5079703;28;20203;-51
2023/05/30 01:21:55;;;;;;;6.93;2.63;;;9.90;99.90;;;;;;5091241;28;20197;-50
2023/05/30 01:24:35;;;;;;;10.93;3.03;;;9.80;99.90;;;;;;5095749;28;20305;-57
2023/05/30 01:27:13;;;;;;;9.33;2.67;;;9.90;99.90;;;;;;5100772;28;20250;-51
2023/05/30 01:29:43;;;;;;;5.70;2.50;;;9.90;99.90;;;;;;5091302;28;20235;-53
2023/05/30 01:32:10;;;;;;;8.27;2.80;;;9.80;99.90;;;;;;5102747;28;20659;-51
2023/05/30 01:34:38;;;;;;;11.13;2.93;;;9.90;99.90;;;;;;5076577;28;22027;-49
2023/05/30 01:37:05;;;;;;;8.27;2.13;;;9.90;99.90;;;;;;5092274;28;20226;-56
2023/05/30 01:39:32;;;;;;;11.70;2.77;;;9.90;99.90;;;;;;5092973;28;20200;-56
2023/05/30 01:42:11;;;;;;;11.00;3.30;;;9.90;99.90;;;;;;5098150;28;20248;-54
2023/05/30 01:44:51;;;;;;;5.73;2.33;;;9.90;99.90;;;;;;5093264;28;20214;-54
2023/05/30 01:47:24;;;;;;;10.13;2.57;;;9.80;99.90;;;;;;5101440;28;20211;-56
2023/05/30 01:49:56;;;;;;;12.30;2.83;;;9.80;99.90;;;;;;5096593;27;20229;-53
2023/05/30 01:52:30;;;;;;;11.40;3.10;;;9.80;99.90;;;;;;5094022;28;20197;-57
2023/05/30 01:55:03;;;;;;;10.97;2.47;;;9.80;99.90;;;;;;5090698;28;20255;-53
2023/05/30 01:57:32;;;;;;;10.00;3.30;;;9.70;99.90;;;;;;5091390;28;20201;-57
2023/05/30 02:00:01;;;;;;;7.07;2.20;;;9.70;99.90;;;;;;5093636;28;20200;-52
2023/05/30 02:02:39;;;;;;;11.30;3.20;;;9.70;99.90;;;;;;5098958;28;20264;-52
2023/05/30 02:05:06;;;;;;;8.90;2.37;;;9.70;99.90;;;;;;5101969;28;20254;-53
2023/05/30 02:07:33;;;;;;;12.57;2.47;;;9.70;99.90;;;;;;5068168;28;20296;-54
2023/05/30 02:10:00;;;;;;;6.67;3.00;;;9.70;99.90;;;;;;5086586;28;20210;-53
2023/05/30 02:12:28;;;;;;;9.87;2.47;;;9.70;99.90;;;;;;5095836;28;20185;-56
2023/05/30 02:14:54;;;;;;;9.47;2.80;;;9.70;99.90;;;;;;5102784;28;20212;-52
2023/05/30 02:17:23;;;;;;;8.07;2.20;;;9.70;99.90;;;;;;5101138;28;20206;-58
2023/05/30 02:19:50;;;;;;;8.00;2.23;;;9.70;99.90;;;;;;5101076;28;20181;-55
2023/05/30 02:22:17;;;;;;;15.13;3.17;;;9.80;99.90;;;;;;5077669;28;20236;-57
2023/05/30 02:24:44;;;;;;;10.43;2.47;;;9.70;99.90;;;;;;5082710;28;20190;-54
2023/05/30 02:27:11;;;;;;;7.13;2.60;;;9.70;99.90;;;;;;5094463;28;20212;-49
2023/05/30 02:29:38;;;;;;;8.40;2.33;;;9.70;99.90;;;;;;5097948;28;20215;-50
2023/05/30 02:32:06;;;;;;;8.63;2.40;;;9.70;99.90;;;;;;5101140;28;20677;-49
2023/05/30 02:34:56;;;;;;;12.50;2.63;;;9.70;99.90;;;;;;5102733;28;20387;-53
2023/05/30 02:37:23;;;;;;;8.70;2.73;;;9.70;99.90;;;;;;5071811;28;20699;-56
2023/05/30 02:40:13;;;;;;;7.63;2.20;;;9.60;99.90;;;;;;5090472;28;20748;-50
2023/05/30 02:42:41;;;;;;;7.50;2.67;;;9.60;99.90;;;;;;5085482;28;20874;-50
2023/05/30 02:45:09;;;;;;;7.73;2.60;;;9.60;99.90;;;;;;5101696;28;20266;-51
2023/05/30 02:47:40;;;;;;;11.67;2.53;;;9.60;99.90;;;;;;5098026;28;20498;-55
2023/05/30 02:50:10;;;;;;;12.40;3.03;;;9.60;99.90;;;;;;5097930;28;20215;-55
2023/05/30 02:52:37;;;;;;;12.87;2.53;;;9.50;99.90;;;;;;5067388;28;20231;-52
2023/05/30 02:55:05;;;;;;;6.63;2.60;;;9.50;99.90;;;;;;5087906;28;20214;-50
2023/05/30 02:57:36;;;;;;;9.27;2.70;;;9.50;99.90;;;;;;5092500;28;20841;-53
2023/05/30 03:00:17;;;;;;;8.53;3.00;;;9.50;99.90;;;;;;5101187;28;20193;-55
2023/05/30 03:02:55;;;;;;;7.23;2.70;;;9.60;99.90;;;;;;5101384;28;20735;-53
2023/05/30 03:05:25;;;;;;;8.90;2.70;;;9.50;99.90;;;;;;5095267;28;20249;-57
2023/05/30 03:07:52;;;;;;;8.27;2.20;;;9.50;99.90;;;;;;5075693;28;20209;-52
2023/05/30 03:10:19;;;;;;;7.73;2.80;;;9.40;99.90;;;;;;5094030;28;20294;-57
2023/05/30 03:12:49;;;;;;;6.67;2.50;;;9.40;99.90;;;;;;5092879;28;20205;-51
2023/05/30 03:15:16;;;;;;;13.70;3.27;;;9.40;99.90;;;;;;5093892;28;20893;-56
2023/05/30 03:17:44;;;;;;;8.37;2.80;;;9.40;99.90;;;;;;5099580;28;20232;-55
2023/05/30 03:20:13;;;;;;;8.50;3.20;;;9.40;99.90;;;;;;5096887;28;20735;-54
2023/05/30 03:22:41;;;;;;;6.57;2.90;;;9.40;99.90;;;;;;5076505;28;20290;-49
2023/05/30 03:25:09;;;;;;;10.40;3.20;;;9.40;99.90;;;;;;5103905;28;20244;-55
2023/05/30 03:27:37;;;;;;;8.80;2.93;;;9.40;99.90;;;;;;5092115;28;20201;-51
2023/05/30 03:30:05;;;;;;;7.53;3.03;;;9.40;99.90;;;;;;5084856;28;20285;-57
2023/05/30 03:32:34;;;;;;;10.20;3.30;;;9.40;99.90;;;;;;5099396;28;20219;-55
2023/05/30 03:35:02;;;;;;;10.37;2.63;;;9.50;99.90;;;;;;5095065;28;20285;-56
2023/05/30 03:37:30;;;;;;;10.83;3.00;;;9.50;99.90;;;;;;5102099;28;20190;-51
2023/05/30 03:39:59;;;;;;;9.77;2.90;;;9.50;99.90;;;;;;5080219;28;20209;-57
2023/05/30 03:42:26;;;;;;;8.47;3.43;;;9.50;99.90;;;;;;5095016;28;20201;-52
2023/05/30 03:44:53;;;;;;;12.00;3.40;;;9.50;99.90;;;;;;5093658;28;20228;-56
2023/05/30 03:47:20;;;;;;;15.23;2.87;;;9.50;99.90;;;;;;5090634;28;20212;-55
2023/05/30 03:49:48;;;;;;;6.17;2.87;;;9.50;99.90;;;;;;5101825;28;20209;-56
2023/05/30 03:52:15;;;;;;;9.57;2.90;;;9.60;99.90;;;;;;5102363;28;20863;-48
2023/05/30 03:54:42;;;;;;;8.07;3.30;;;9.60;99.90;;;;;;5083428;28;20205;-53
2023/05/30 03:57:13;;;;;;;11.87;2.40;;;9.60;99.90;;;;;;5091227;28;20248;-53
2023/05/30 03:59:40;;;;;;;9.00;2.97;;;9.70;99.90;;;;;;5100212;28;20198;-54
2023/05/30 04:02:07;;;;;;;9.60;3.33;;;9.70;99.90;;;;;;5075494;28;20193;-54
2023/05/30 04:04:33;;;;;;;10.93;2.93;;;9.70;99.90;;;;;;5100240;28;20177;-53
2023/05/30 04:07:01;;;;;;;6.50;2.70;;;9.70;99.90;;;;;;5096920;28;20201;-52
2023/05/30 04:09:28;;;;;;;12.37;3.23;;;9.80;99.90;;;;;;5081605;28;20220;-58
2023/05/30 04:11:54;;;;;;;12.20;3.37;;;9.80;99.90;;;;;;5101461;28;20254;-52
2023/05/30 04:14:23;;;;;;;13.50;3.20;;;9.80;99.90;;;;;;5083176;28;20220;-56
2023/05/30 04:16:50;;;;;;;12.50;3.00;;;9.90;99.90;;;;;;5088955;28;20240;-51
2023/05/30 04:19:18;;;;;;;8.80;3.43;;;9.90;99.90;;;;;;5094130;28;21492;-58
2023/05/30 04:21:45;;;;;;;11.57;3.70;;;9.90;99.90;;;;;;5092750;28;20197;-49
2023/05/30 04:24:14;;;;;;;6.87;2.93;;;9.90;99.90;;;;;;5080756;28;20293;-56
2023/05/30 04:26:41;;;;;;;12.07;3.60;;;9.90;99.90;;;;;;5060339;28;20602;-52
2023/05/30 04:29:09;;;;;;;19.40;3.70;;;10.00;99.90;;;;;;5080409;28;20205;-54
2023/05/30 04:31:38;;;;;;;11.93;3.77;;;10.00;99.90;;;;;;5083232;28;20253;-54
2023/05/30 04:34:05;;;;;;;15.33;3.63;;;10.10;99.90;;;;;;5089984;28;20197;-53
2023/05/30 04:36:36;;;;;;;10.10;3.43;;;10.10;99.90;;;;;;5092927;28;20298;-53
2023/05/30 04:39:03;;;;;;;12.77;4.30;;;10.10;99.90;;;;;;5083091;28;20629;-56
2023/05/30 04:41:32;;;;;;;9.07;3.70;;;10.10;99.90;;;;;;5076688;28;20213;-55
2023/05/30 04:43:59;;;;;;;10.13;4.00;;;10.20;99.90;;;;;;5086390;28;20200;-57
2023/05/30 04:46:27;;;;;;;9.73;4.17;;;10.20;99.90;;;;;;5088439;28;20669;-54
2023/05/30 04:49:00;;;;;;;8.33;4.43;;;10.20;99.90;;;;;;5079399;28;20251;-57
2023/05/30 04:51:28;;;;;;;15.73;3.87;;;10.30;99.90;;;;;;5087904;28;20221;-50
2023/05/30 04:53:55;;;;;;;5.33;3.57;;;10.30;99.90;;;;;;5084647;28;20666;-55
2023/05/30 04:56:23;;;;;;;11.23;4.90;;;10.30;99.90;;;;;;5078144;28;20358;-56
2023/05/30 04:58:52;;;;;;;14.40;3.90;;;10.30;99.90;;;;;;5070618;28;20929;-54
2023/05/30 05:01:20;;;;;;;14.60;4.53;;;10.40;99.90;;;;;;5084081;28;21064;-56
2023/05/30 05:03:47;;;;;;;9.10;4.10;;;10.40;99.90;;;;;;5083342;28;20213;-48
2023/05/30 05:06:16;;;;;;;21.80;5.40;;;10.50;99.90;;;;;;5096513;28;20213;-49
2023/05/30 05:08:42;;;;;;;8.07;3.80;;;10.50;99.90;;;;;;5080624;28;20228;-56
2023/05/30 05:11:09;;;;;;;14.50;4.40;;;10.60;99.90;;;;;;5075976;28;20232;-53
2023/05/30 05:13:37;;;;;;;12.53;4.10;;;10.50;99.90;;;;;;5076634;28;20220;-57
2023/05/30 05:16:06;;;;;;;11.60;3.87;;;10.60;99.90;;;;;;5086373;28;20229;-54
2023/05/30 05:18:32;;;;;;;9.07;4.23;;;10.60;99.90;;;;;;5080415;28;20255;-55
2023/05/30 05:21:00;;;;;;;10.63;4.03;;;10.60;99.90;;;;;;5099778;28;20472;-51
2023/05/30 05:23:29;;;;;;;8.90;4.10;;;10.60;99.90;;;;;;5091492;28;20258;-56
2023/05/30 05:25:56;;;;;;;13.33;4.20;;;10.70;99.90;;;;;;5086653;28;20222;-51
2023/05/30 05:28:23;;;;;;;13.77;4.37;;;10.70;99.90;;;;;;5098423;28;20714;-55
2023/05/30 05:30:51;;;;;;;8.43;3.70;;;10.80;99.90;;;;;;5070336;28;20281;-49
2023/05/30 05:33:19;;;;;;;12.33;4.43;;;10.80;99.90;;;;;;5091403;28;20208;-48
2023/05/30 05:35:46;;;;;;;14.27;4.50;;;10.90;99.90;;;;;;5080187;28;20232;-53
2023/05/30 05:38:13;;;;;;;10.83;4.00;;;10.80;99.90;;;;;;5082351;28;20227;-54
2023/05/30 05:40:42;;;;;;;8.53;4.40;;;10.90;99.90;;;;;;5094443;28;20279;-56
2023/05/30 05:43:09;;;;;;;19.10;4.17;;;10.90;99.90;;;;;;5086736;28;20301;-49
2023/05/30 05:45:36;;;;;;;12.87;5.63;;;10.80;99.90;;;;;;5073365;28;20711;-56
2023/05/30 05:48:04;;;;;;;11.83;4.90;;;10.80;99.90;;;;;;5087889;28;20208;-49
2023/05/30 05:50:33;;;;;;;21.27;4.70;;;10.80;99.90;;;;;;5082364;28;20223;-57
2023/05/30 05:52:59;;;;;;;10.20;4.03;;;10.90;99.90;;;;;;5078405;28;20201;-51
2023/05/30 05:55:28;;;;;;;4.73;3.67;;;10.90;99.90;;;;;;5088494;28;20222;-52
2023/05/30 05:57:56;;;;;;;10.33;4.23;;;11.00;99.90;;;;;;5076334;28;20193;-55
2023/05/30 06:00:24;;;;;;;15.40;4.47;;;11.00;99.90;;;;;;5072874;28;20197;-53
2023/05/30 06:02:50;;;;;;;12.73;5.10;;;11.00;99.90;;;;;;5086873;28;20208;-56
2023/05/30 06:05:17;;;;;;;13.80;5.17;;;11.00;99.90;;;;;;5084620;28;20225;-54
2023/05/30 06:07:45;;;;;;;11.30;4.17;;;11.10;99.90;;;;;;5096482;28;20201;-54
2023/05/30 06:10:11;;;;;;;11.60;5.07;;;11.10;99.90;;;;;;5091624;28;20929;-51
2023/05/30 06:12:38;;;;;;;10.07;4.87;;;11.10;99.90;;;;;;5092708;28;20212;-57
2023/05/30 06:15:07;;;;;;;10.37;4.83;;;11.10;99.90;;;;;;5075071;28;20224;-55
2023/05/30 06:17:34;;;;;;;10.70;4.37;;;11.20;99.90;;;;;;5081661;28;20193;-56
2023/05/30 06:20:01;;;;;;;9.53;4.80;;;11.20;99.90;;;;;;5081625;28;20860;-56
2023/05/30 06:22:27;;;;;;;8.90;4.63;;;11.30;99.90;;;;;;5092935;28;20722;-53
2023/05/30 06:24:55;;;;;;;10.17;4.67;;;11.30;99.90;;;;;;5093603;28;20983;-55
2023/05/30 06:27:23;;;;;;;6.83;3.63;;;11.30;99.90;;;;;;5094033;28;20293;-53
2023/05/30 06:29:50;;;;;;;10.57;3.57;;;11.40;99.90;;;;;;5090833;28;20220;-57
2023/05/30 06:32:18;;;;;;;12.67;3.97;;;11.40;99.90;;;;;;5063121;28;20619;-53
2023/05/30 06:34:46;;;;;;;7.87;3.50;;;11.40;99.90;;;;;;5088475;28;20212;-50
2023/05/30 06:37:12;;;;;;;7.80;3.10;;;11.40;99.90;;;;;;5085785;28;20213;-51
2023/05/30 06:39:39;;;;;;;9.20;3.80;;;11.40;99.90;;;;;;5089900;28;20198;-52
2023/05/30 06:42:09;;;;;;;8.90;3.60;;;11.40;99.90;;;;;;5082911;28;20247;-56
2023/05/30 06:44:43;;;;;;;10.40;3.47;;;11.40;99.90;;;;;;5097147;28;20310;-55
2023/05/30 06:47:10;;;;;;;8.00;4.27;;;11.50;99.90;;;;;;5062821;28;21211;-49
2023/05/30 06:49:38;;;;;;;11.47;4.30;;;11.50;99.90;;;;;;5092722;28;20212;-51
2023/05/30 06:52:05;;;;;;;6.60;3.70;;;11.50;99.90;;;;;;5095335;28;20541;-54
2023/05/30 06:54:33;;;;;;;5.43;3.13;;;11.50;99.90;;;;;;5103809;28;20262;-51
2023/05/30 06:57:20;;;;;;;10.93;3.57;;;11.50;99.90;;;;;;5096891;28;20942;-52
2023/05/30 06:59:47;;;;;;;6.70;3.20;;;11.60;99.90;;;;;;5093598;28;20625;-53
2023/05/30 07:02:13;;;;;;;8.53;3.43;;;11.60;99.90;;;;;;5072582;28;20240;-51
2023/05/30 07:04:43;;;;;;;9.37;4.23;;;11.70;99.90;;;;;;5069670;28;22689;-51
2023/05/30 07:07:28;;;;;;;7.63;4.03;;;11.70;99.90;;;;;;5088681;28;20678;-54
2023/05/30 07:09:56;;;;;;;6.27;2.87;;;11.80;99.90;;;;;;5095687;28;20189;-50
2023/05/30 07:12:23;;;;;;;6.10;3.60;;;11.80;99.90;;;;;;5090396;28;20950;-55
2023/05/30 07:14:50;;;;;;;8.10;3.80;;;11.80;99.90;;;;;;5079640;28;20230;-52
2023/05/30 07:17:16;;;;;;;10.83;4.00;;;11.80;99.90;;;;;;5075413;28;20208;-55
2023/05/30 07:19:45;;;;;;;7.30;3.47;;;11.80;99.90;;;;;;5089721;28;20193;-55
2023/05/30 07:22:33;;;;;;;10.77;3.83;;;11.90;99.90;;;;;;5083645;28;20215;-55
2023/05/30 07:25:00;;;;;;;9.80;3.53;;;12.00;99.90;;;;;;5097120;28;20205;-52
2023/05/30 07:27:27;;;;;;;6.63;3.20;;;12.00;99.90;;;;;;5081714;27;20672;-55
2023/05/30 07:29:53;;;;;;;6.13;3.83;;;11.90;99.90;;;;;;5091204;28;20205;-54
2023/05/30 07:32:21;;;;;;;6.73;3.53;;;11.90;99.90;;;;;;5079946;28;20864;-51
2023/05/30 07:34:49;;;;;;;7.40;3.50;;;12.10;99.90;;;;;;5094466;28;20237;-48
2023/05/30 07:37:17;;;;;;;8.70;3.43;;;12.10;99.90;;;;;;5097815;28;20587;-53
2023/05/30 07:40:05;;;;;;;10.50;4.13;;;12.20;99.90;;;;;;5096057;28;20208;-55
2023/05/30 07:42:32;;;;;;;7.53;3.93;;;12.20;99.90;;;;;;5082446;28;20230;-53
2023/05/30 07:44:59;;;;;;;7.80;4.07;;;12.30;99.90;;;;;;5095577;28;20221;-53
2023/05/30 07:47:26;;;;;;;6.70;3.53;;;12.30;99.90;;;;;;5081833;28;20194;-52
2023/05/30 07:50:16;;;;;;;8.03;3.43;;;12.30;99.90;;;;;;5091634;28;20208;-54
2023/05/30 07:52:43;;;;;;;9.63;3.40;;;12.30;99.90;;;;;;5089481;28;20259;-55
2023/05/30 07:55:10;;;;;;;10.03;4.03;;;12.30;99.90;;;;;;5080810;28;20225;-53
2023/05/30 07:57:58;;;;;;;5.07;3.20;;;12.40;99.90;;;;;;5085361;28;20579;-52
2023/05/30 08:00:25;;;;;;;10.37;4.00;;;12.40;99.90;;;;;;5096200;28;20657;-51
2023/05/30 08:02:51;;;;;;;9.23;3.50;;;12.40;99.90;;;;;;5079727;28;20209;-54
2023/05/30 08:05:20;;;;;;;7.00;3.47;;;12.40;99.90;;;;;;5091140;28;20209;-55
2023/05/30 08:07:47;;;;;;;5.40;3.50;;;12.50;99.90;;;;;;5097766;28;21003;-54
2023/05/30 08:10:13;;;;;;;6.67;3.20;;;12.50;99.90;;;;;;5078921;28;20197;-52
2023/05/30 08:13:03;;;;;;;8.20;3.77;;;12.50;99.90;;;;;;5100478;28;20377;-53
2023/05/30 08:15:31;;;;;;;4.43;3.17;;;12.40;99.90;;;;;;5085323;28;20248;-53
2023/05/30 08:18:00;;;;;;;8.97;3.53;;;12.40;99.90;;;;;;5104776;28;20189;-54
2023/05/30 08:20:28;;;;;;;7.73;3.03;;;12.50;99.90;;;;;;5075517;28;20252;-53
2023/05/30 08:22:56;;;;;;;6.40;3.30;;;12.50;99.90;;;;;;5096235;28;20193;-53
2023/05/30 08:25:23;;;;;;;9.57;3.90;;;12.50;99.90;;;;;;5077763;28;20787;-51
2023/05/30 08:27:51;;;;;;;5.10;2.97;;;12.50;99.90;;;;;;5102305;28;20741;-49
2023/05/30 08:30:18;;;;;;;5.47;3.40;;;12.60;99.90;;;;;;5086316;28;20194;-54
2023/05/30 08:32:45;;;;;;;7.27;3.00;;;12.70;99.90;;;;;;5092787;28;20944;-48
2023/05/30 08:35:13;;;;;;;5.57;3.33;;;12.80;99.90;;;;;;5081067;28;20217;-54
2023/05/30 08:37:41;;;;;;;4.73;3.47;;;12.80;99.90;;;;;;5081206;28;20205;-54
2023/05/30 08:40:11;;;;;;;6.47;3.10;;;12.80;99.90;;;;;;5094194;28;20201;-52
2023/05/30 08:42:40;;;;;;;10.23;4.37;;;12.80;99.90;;;;;;5081306;28;20309;-48
2023/05/30 08:45:08;;;;;;;15.00;3.57;;;12.90;99.90;;;;;;5099322;28;20228;-54
2023/05/30 08:47:35;;;;;;;7.17;3.23;;;12.90;99.90;;;;;;5085538;28;20208;-51
2023/05/30 08:50:04;;;;;;;10.47;3.70;;;12.90;99.90;;;;;;5082293;28;20205;-54
2023/05/30 08:52:32;;;;;;;6.77;3.60;;;12.90;99.90;;;;;;5083654;28;20305;-51
2023/05/30 08:55:06;;;;;;;9.30;3.70;;;12.90;99.90;;;;;;5094696;28;20221;-51
2023/05/30 08:57:40;;;;;;;7.30;3.93;;;13.00;99.90;;;;;;5094554;28;20189;-53
2023/05/30 09:00:11;;;;;;;10.27;4.47;;;13.00;99.90;;;;;;5101238;28;20272;-49
2023/05/30 09:02:38;;;;;;;8.70;3.57;;;13.00;99.90;;;;;;5091182;28;20292;-56
2023/05/30 09:05:06;;;;;;;5.53;3.40;;;13.00;99.90;;;;;;5066115;28;20220;-53
2023/05/30 09:07:35;;;;;;;10.23;4.30;;;13.00;99.90;;;;;;5084100;28;20196;-52
2023/05/30 09:10:04;;;;;;;6.93;3.33;;;13.00;99.90;;;;;;5098325;28;20216;-51
2023/05/30 09:12:31;;;;;;;9.20;4.13;;;13.10;99.90;;;;;;5086688;28;20302;-51
2023/05/30 09:14:59;;;;;;;5.77;3.40;;;13.20;99.90;;;;;;5101373;28;20587;-54
2023/05/30 09:17:26;;;;;;;6.20;3.20;;;13.20;99.90;;;;;;5090840;28;20197;-54
2023/05/30 09:19:53;;;;;;;7.87;2.93;;;13.20;99.90;;;;;;5059646;28;20292;-52
2023/05/30 09:22:21;;;;;;;9.33;3.20;;;13.10;99.90;;;;;;5087070;28;20197;-55
2023/05/30 09:24:56;;;;;;;7.60;3.20;;;13.20;99.90;;;;;;5094705;28;20190;-51
2023/05/30 09:27:24;;;;;;;5.83;2.93;;;13.20;99.90;;;;;;5085668;28;20296;-55
2023/05/30 09:29:51;;;;;;;3.77;2.93;;;13.20;99.90;;;;;;5092454;28;20193;-52
2023/05/30 09:32:19;;;;;;;8.80;3.40;;;13.30;99.90;;;;;;5077904;28;20262;-54
2023/05/30 09:34:54;;;;;;;7.10;3.63;;;13.30;99.90;;;;;;5086199;28;23372;-48
2023/05/30 09:37:21;;;;;;;9.07;3.50;;;13.30;99.90;;;;;;5060929;28;20215;-52
2023/05/30 09:40:10;;;;;;;9.50;3.70;;;13.30;99.90;;;;;;5090214;28;20213;-53
2023/05/30 09:42:42;;;;;;;6.17;3.57;;;13.30;99.90;;;;;;5074696;28;20473;-52
2023/05/30 09:45:11;;;;;;;5.23;3.13;;;13.30;99.90;;;;;;5090652;28;20490;-55
2023/05/30 09:47:44;;;;;;;7.97;3.20;;;13.30;99.90;;;;;;5083585;28;20200;-55
2023/05/30 09:50:12;;;;;;;9.47;3.40;;;13.50;99.90;;;;;;5078477;28;20209;-56
2023/05/30 09:52:41;;;;;;;8.90;4.03;;;13.50;99.90;;;;;;5074079;28;20379;-49
2023/05/30 09:55:09;;;;;;;6.10;3.17;;;13.60;99.90;;;;;;5097020;28;20220;-56
2023/05/30 09:57:38;;;;;;;7.73;3.47;;;13.60;99.90;;;;;;5087484;28;20255;-49
2023/05/30 10:00:11;;;;;;;6.93;3.40;;;13.70;99.90;;;;;;5090087;28;20199;-53
2023/05/30 10:02:41;;;;;;;4.70;3.77;;;13.80;99.90;;;;;;5085553;28;20238;-53
2023/05/30 10:05:18;;;;;;;8.00;3.40;;;13.80;99.90;;;;;;5081359;28;20217;-52
2023/05/30 10:07:48;;;;;;;7.67;3.80;;;13.80;99.90;;;;;;5067057;28;20209;-49
2023/05/30 10:10:17;;;;;;;9.10;3.40;;;13.90;99.90;;;;;;5089593;28;20689;-57
2023/05/30 10:12:44;;;;;;;7.00;3.63;;;13.90;99.90;;;;;;5085498;28;20222;-48
2023/05/30 10:15:13;;;;;;;9.50;3.80;;;13.80;99.90;;;;;;5080711;28;20225;-54
2023/05/30 10:17:47;;;;;;;8.67;3.63;;;13.80;99.90;;;;;;5096599;28;20196;-49
2023/05/30 10:20:16;;;;;;;7.60;3.93;;;13.90;99.90;;;;;;5093900;28;20263;-55
2023/05/30 10:22:46;;;;;;;7.13;3.33;;;13.90;99.90;;;;;;5077486;28;22386;-47
2023/05/30 10:25:16;;;;;;;8.93;3.27;;;13.90;99.90;;;;;;5096004;28;20221;-57
2023/05/30 10:27:48;;;;;;;9.27;3.90;;;13.90;99.90;;;;;;5086719;28;21803;-52
2023/05/30 10:30:22;;;;;;;9.17;3.97;;;14.00;99.90;;;;;;5091909;28;20572;-55
2023/05/30 10:32:54;;;;;;;6.23;3.50;;;14.00;99.90;;;;;;5096507;28;20213;-47
2023/05/30 10:35:21;;;;;;;8.50;3.67;;;14.00;99.90;;;;;;5094447;28;20789;-54
2023/05/30 10:37:50;;;;;;;5.70;4.13;;;14.00;99.90;;;;;;5069938;28;20197;-50
2023/05/30 10:40:31;;;;;;;4.67;3.97;;;14.10;99.90;;;;;;5093914;28;20216;-53
2023/05/30 10:43:09;;;;;;;6.37;3.20;;;14.10;99.90;;;;;;5091198;28;20280;-52
2023/05/30 10:45:50;;;;;;;4.93;3.03;;;14.20;99.90;;;;;;5090240;28;20231;-48
2023/05/30 10:48:26;;;;;;;5.70;3.10;;;14.30;99.90;;;;;;5098141;28;20206;-54
2023/05/30 10:50:59;;;;;;;4.73;3.20;;;14.30;99.90;;;;;;5099194;28;20193;-48
2023/05/30 10:53:27;;;;;;;7.10;3.20;;;14.40;99.90;;;;;;5080440;28;20217;-55
2023/05/30 10:55:54;;;;;;;8.37;3.80;;;14.40;99.90;;;;;;5087772;28;20244;-53
2023/05/30 10:58:38;;;;;;;8.90;3.67;;;14.40;99.90;;;;;;5077783;28;20193;-54
2023/05/30 11:01:26;;;;;;;7.83;4.10;;;14.40;99.90;;;;;;5088049;28;20204;-49
2023/05/30 11:04:02;;;;;;;8.83;4.43;;;14.40;99.90;;;;;;5103391;28;20293;-51
2023/05/30 11:06:33;;;;;;;4.30;3.73;;;14.40;99.90;;;;;;5096320;28;20213;-50
2023/05/30 11:09:06;;;;;;;5.90;4.10;;;14.30;99.90;;;;;;5100105;28;20269;-53
2023/05/30 11:11:37;;;;;;;7.30;4.40;;;14.40;99.90;;;;;;5066118;28;21045;-50
2023/05/30 11:14:07;;;;;;;7.93;3.73;;;14.50;99.90;;;;;;5091876;28;20217;-50
2023/05/30 11:16:49;;;;;;;6.07;3.80;;;14.40;99.90;;;;;;5086404;28;21137;-53
2023/05/30 11:19:15;;;;;;;7.90;4.43;;;14.50;99.90;;;;;;5095784;28;20793;-54
2023/05/30 11:22:00;;;;;;;6.90;4.60;;;14.50;99.90;;;;;;5095033;28;21372;-55
2023/05/30 11:24:29;;;;;;;6.43;3.87;;;14.50;99.90;;;;;;5092061;28;20195;-53
2023/05/30 11:26:58;;;;;;;5.90;4.13;;;14.30;99.90;;;;;;5078013;28;20644;-50
2023/05/30 11:29:44;;;;;;;7.10;4.37;;;14.30;99.90;;;;;;5073796;28;20216;-54
2023/05/30 11:32:12;;;;;;;6.37;3.97;;;14.50;99.90;;;;;;5085320;28;20201;-55
2023/05/30 11:34:39;;;;;;;6.27;3.67;;;14.50;99.90;;;;;;5101484;28;20181;-48
2023/05/30 11:37:07;;;;;;;6.93;4.00;;;14.60;99.90;;;;;;5090513;28;20188;-53
2023/05/30 11:39:34;;;;;;;9.20;3.73;;;14.80;99.90;;;;;;5090658;27;21753;-50
2023/05/30 11:42:20;;;;;;;8.43;3.63;;;14.90;99.90;;;;;;5074377;28;20208;-55
2023/05/30 11:44:47;;;;;;;6.93;4.03;;;15.00;99.90;;;;;;5083706;28;20206;-50
2023/05/30 11:47:18;;;;;;;7.87;4.10;;;15.10;99.90;;;;;;5075475;28;20285;-55
2023/05/30 11:49:46;;;;;;;7.50;4.07;;;15.00;99.90;;;;;;5097415;28;20201;-49
2023/05/30 11:52:14;;;;;;;6.23;4.33;;;15.20;99.90;;;;;;5085387;28;20336;-55
2023/05/30 11:54:41;;;;;;;5.53;4.00;;;15.10;99.90;;;;;;5092641;28;20216;-50
2023/05/30 11:57:11;;;;;;;7.43;3.83;;;15.20;99.90;;;;;;5079946;28;20288;-56
2023/05/30 11:59:42;;;;;;;5.40;3.93;;;15.40;99.90;;;;;;5097670;28;20214;-49
2023/05/30 12:02:08;;;;;;;4.70;3.60;;;15.40;99.90;;;;;;5090903;28;20617;-55
2023/05/30 12:04:38;;;;;;;7.33;4.13;;;15.40;99.90;;;;;;5095642;28;20208;-54
2023/05/30 12:07:06;;;;;;;8.00;4.33;;;15.30;99.90;;;;;;5089211;28;20287;-52
2023/05/30 12:09:38;;;;;;;8.47;4.13;;;15.30;99.90;;;;;;5093101;28;20209;-50
2023/05/30 12:12:06;;;;;;;5.87;3.73;;;15.40;99.90;;;;;;5085497;28;20193;-56
2023/05/30 12:14:40;;;;;;;7.60;4.20;;;15.40;99.90;;;;;;5096831;28;20217;-54
2023/05/30 12:17:12;;;;;;;6.40;3.70;;;15.50;99.90;;;;;;5081327;28;20202;-54
2023/05/30 12:19:41;;;;;;;5.77;4.37;;;15.60;99.90;;;;;;5087079;28;20285;-51
2023/05/30 12:22:08;;;;;;;8.40;3.83;;;15.60;99.90;;;;;;5098781;28;20201;-54
2023/05/30 12:24:37;;;;;;;4.03;3.50;;;15.60;99.90;;;;;;5098152;28;20306;-52
2023/05/30 12:27:05;;;;;;;6.07;4.53;;;15.80;99.90;;;;;;5087696;28;20278;-51
2023/05/30 12:29:33;;;;;;;9.20;3.40;;;15.80;99.90;;;;;;5085614;28;20209;-50
2023/05/30 12:32:01;;;;;;;7.23;3.60;;;15.90;99.90;;;;;;5082714;28;20200;-53
2023/05/30 12:34:38;;;;;;;6.10;4.27;;;16.00;99.90;;;;;;5085522;28;20733;-50
2023/05/30 12:37:08;;;;;;;5.23;3.30;;;16.10;99.90;;;;;;5092258;28;20193;-53
2023/05/30 12:39:34;;;;;;;11.93;6.27;;;16.00;99.90;;;;;;5103640;28;20189;-49
2023/05/30 12:42:08;;;;;;;7.40;3.97;;;16.00;99.90;;;;;;5092499;28;20209;-52
2023/05/30 12:44:46;;;;;;;5.47;3.93;;;16.00;99.90;;;;;;5069388;28;20209;-53
2023/05/30 12:47:13;;;;;;;6.87;3.57;;;16.10;99.90;;;;;;5085119;28;20317;-51
2023/05/30 12:49:40;;;;;;;5.60;3.93;;;16.20;99.90;;;;;;5088956;28;20839;-54
2023/05/30 12:52:09;;;;;;;6.47;4.00;;;16.10;99.90;;;;;;5093950;28;20217;-48
2023/05/30 12:54:36;;;;;;;8.90;4.73;;;16.10;99.90;;;;;;5101512;28;20321;-55
2023/05/30 12:57:04;;;;;;;6.77;4.13;;;16.10;99.90;;;;;;5088172;28;20270;-51
2023/05/30 12:59:31;;;;;;;4.47;3.87;;;16.10;99.90;;;;;;5068553;28;20204;-53